Loughman, Florida
Current Conditions -  °F | °C
As of 8:50 AM on Sunday 23 Nov 2014 (Local Time) from KISM Reporting Station
Overcast Overcast  
Wind Chill: 72°   Ceiling: 500
Heat Index: 72°   Visibility: 7mi
Dew Point: 72°   Wind: 10mph
Humidity: 100%   Direction: 160°SSE
Pressure: 30.03"   Gusts: NA
Location:  28.24°N, 81.57°W
Report Text: KISM 231350Z 16009KT 7SM BKN005 OVC040 22/22 A3003 RMK RAE49
Loading
Personal Weather Stations






























Interactive Weather Map New forecast layout! Learn more

10-Day Weather Forecast

Advertisements
Track Severe Weather on mobile